Terminal Aerodrome Forecast
Issued by NWS Pocatello, ID

Home | Current Version | Previous Version | Text Only | Print | Product List | Glossary On
Versions: 1 2 3 4 5 6 7 8 9 10 11 12 13 14 15 16 17 18 19
000
FTUS45 KPIH 180600 AAA
TAFPIH
TAF AMD
KPIH 180600Z 1806/1906 18020G30KT P6SM OVC100
     FM180900 22015G25KT P6SM VCSH SCT040 OVC060
     FM181200 25025G35KT P6SM -SHRA BKN030 OVC050
     FM182100 23018G28KT P6SM SCT040 OVC060
     FM190200 23015KT P6SM FEW100=

USA.gov is the U.S. government's official web portal to all federal, state and local government web resources and services.